sensor_id;sensor_type;location;lat;lon;timestamp;P1;durP1;ratioP1;P2;durP2;ratioP2
39918;SDS011;25589;51.552;13.424;2022-09-09T00:02:18;2.20;;;1.92;;
39918;SDS011;25589;51.552;13.424;2022-09-09T00:04:49;2.95;;;1.73;;
39918;SDS011;25589;51.552;13.424;2022-09-09T00:07:34;4.65;;;1.92;;
39918;SDS011;25589;51.552;13.424;2022-09-09T00:15:12;4.13;;;1.95;;
39918;SDS011;25589;51.552;13.424;2022-09-09T00:23:04;3.50;;;1.85;;
39918;SDS011;25589;51.552;13.424;2022-09-09T00:26:26;2.47;;;2.00;;
39918;SDS011;25589;51.552;13.424;2022-09-09T00:29:11;3.33;;;1.63;;
39918;SDS011;25589;51.552;13.424;2022-09-09T00:31:43;2.05;;;1.75;;
39918;SDS011;25589;51.552;13.424;2022-09-09T00:34:11;3.55;;;1.70;;
39918;SDS011;25589;51.552;13.424;2022-09-09T00:36:40;4.25;;;1.67;;
39918;SDS011;25589;51.552;13.424;2022-09-09T00:39:09;3.42;;;1.65;;
39918;SDS011;25589;51.552;13.424;2022-09-09T00:42:46;3.17;;;1.90;;
39918;SDS011;25589;51.552;13.424;2022-09-09T00:44:52;2.40;;;1.73;;
39918;SDS011;25589;51.552;13.424;2022-09-09T00:55:48;2.90;;;1.70;;
39918;SDS011;25589;51.552;13.424;2022-09-09T00:58:17;4.00;;;2.00;;
39918;SDS011;25589;51.552;13.424;2022-09-09T01:00:49;2.03;;;1.83;;
39918;SDS011;25589;51.552;13.424;2022-09-09T01:03:34;2.08;;;1.80;;
39918;SDS011;25589;51.552;13.424;2022-09-09T01:06:15;4.10;;;1.93;;
39918;SDS011;25589;51.552;13.424;2022-09-09T01:08:58;3.60;;;1.83;;
39918;SDS011;25589;51.552;13.424;2022-09-09T01:14:40;1.90;;;1.80;;
39918;SDS011;25589;51.552;13.424;2022-09-09T01:17:09;3.10;;;1.60;;
39918;SDS011;25589;51.552;13.424;2022-09-09T01:28:19;1.83;;;1.63;;
39918;SDS011;25589;51.552;13.424;2022-09-09T01:30:51;3.40;;;1.80;;
39918;SDS011;25589;51.552;13.424;2022-09-09T01:33:21;1.90;;;1.80;;
39918;SDS011;25589;51.552;13.424;2022-09-09T01:35:52;2.58;;;1.80;;
39918;SDS011;25589;51.552;13.424;2022-09-09T01:38:34;3.30;;;1.60;;
39918;SDS011;25589;51.552;13.424;2022-09-09T01:41:01;5.32;;;1.85;;
39918;SDS011;25589;51.552;13.424;2022-09-09T01:43:37;3.20;;;1.90;;
39918;SDS011;25589;51.552;13.424;2022-09-09T01:46:02;2.47;;;1.83;;
39918;SDS011;25589;51.552;13.424;2022-09-09T01:48:30;2.70;;;1.70;;
39918;SDS011;25589;51.552;13.424;2022-09-09T01:51:05;2.78;;;1.65;;
39918;SDS011;25589;51.552;13.424;2022-09-09T01:53:32;1.80;;;1.60;;
39918;SDS011;25589;51.552;13.424;2022-09-09T01:56:11;1.90;;;1.33;;
39918;SDS011;25589;51.552;13.424;2022-09-09T02:01:48;1.77;;;1.67;;
39918;SDS011;25589;51.552;13.424;2022-09-09T02:06:52;2.35;;;1.33;;
39918;SDS011;25589;51.552;13.424;2022-09-09T02:09:29;1.73;;;1.63;;
39918;SDS011;25589;51.552;13.424;2022-09-09T02:12:16;3.40;;;2.10;;
39918;SDS011;25589;51.552;13.424;2022-09-09T02:14:56;2.50;;;2.03;;
39918;SDS011;25589;51.552;13.424;2022-09-09T02:17:38;2.75;;;1.50;;
39918;SDS011;25589;51.552;13.424;2022-09-09T02:20:14;2.65;;;1.83;;
39918;SDS011;25589;51.552;13.424;2022-09-09T02:22:52;1.55;;;1.33;;
39918;SDS011;25589;51.552;13.424;2022-09-09T02:25:22;2.40;;;1.83;;
39918;SDS011;25589;51.552;13.424;2022-09-09T02:27:53;3.30;;;1.70;;
39918;SDS011;25589;51.552;13.424;2022-09-09T02:30:20;3.38;;;1.83;;
39918;SDS011;25589;51.552;13.424;2022-09-09T02:32:51;4.38;;;1.63;;
39918;SDS011;25589;51.552;13.424;2022-09-09T02:35:37;1.45;;;1.35;;
39918;SDS011;25589;51.552;13.424;2022-09-09T02:38:06;1.50;;;1.40;;
39918;SDS011;25589;51.552;13.424;2022-09-09T02:40:37;5.68;;;2.00;;
39918;SDS011;25589;51.552;13.424;2022-09-09T02:43:03;3.17;;;1.60;;
39918;SDS011;25589;51.552;13.424;2022-09-09T02:45:31;1.42;;;1.33;;
39918;SDS011;25589;51.552;13.424;2022-09-09T02:48:17;2.35;;;1.50;;
39918;SDS011;25589;51.552;13.424;2022-09-09T02:50:57;2.15;;;1.73;;
39918;SDS011;25589;51.552;13.424;2022-09-09T02:54:22;2.75;;;2.20;;
39918;SDS011;25589;51.552;13.424;2022-09-09T02:56:47;3.85;;;1.65;;
39918;SDS011;25589;51.552;13.424;2022-09-09T02:59:16;3.00;;;1.60;;
39918;SDS011;25589;51.552;13.424;2022-09-09T03:01:42;6.45;;;1.60;;
39918;SDS011;25589;51.552;13.424;2022-09-09T03:04:09;3.05;;;1.67;;
39918;SDS011;25589;51.552;13.424;2022-09-09T03:06:35;1.33;;;1.23;;
39918;SDS011;25589;51.552;13.424;2022-09-09T03:09:11;2.47;;;1.35;;
39918;SDS011;25589;51.552;13.424;2022-09-09T03:11:37;1.52;;;1.35;;
39918;SDS011;25589;51.552;13.424;2022-09-09T03:14:04;2.63;;;1.40;;
39918;SDS011;25589;51.552;13.424;2022-09-09T03:16:31;3.50;;;1.67;;
39918;SDS011;25589;51.552;13.424;2022-09-09T03:18:58;2.83;;;1.52;;
39918;SDS011;25589;51.552;13.424;2022-09-09T03:21:24;2.80;;;1.40;;
39918;SDS011;25589;51.552;13.424;2022-09-09T03:23:50;4.45;;;1.75;;
39918;SDS011;25589;51.552;13.424;2022-09-09T03:26:16;2.97;;;1.73;;
39918;SDS011;25589;51.552;13.424;2022-09-09T03:28:44;1.40;;;1.30;;
39918;SDS011;25589;51.552;13.424;2022-09-09T03:31:12;3.70;;;1.80;;
39918;SDS011;25589;51.552;13.424;2022-09-09T03:33:40;3.22;;;1.58;;
39918;SDS011;25589;51.552;13.424;2022-09-09T03:36:07;4.72;;;1.70;;
39918;SDS011;25589;51.552;13.424;2022-09-09T03:38:34;2.20;;;1.50;;
39918;SDS011;25589;51.552;13.424;2022-09-09T03:40:59;2.30;;;1.50;;
39918;SDS011;25589;51.552;13.424;2022-09-09T03:43:27;1.90;;;1.67;;
39918;SDS011;25589;51.552;13.424;2022-09-09T03:45:54;3.53;;;1.83;;
39918;SDS011;25589;51.552;13.424;2022-09-09T03:48:25;2.35;;;1.45;;
39918;SDS011;25589;51.552;13.424;2022-09-09T03:50:53;1.60;;;1.50;;
39918;SDS011;25589;51.552;13.424;2022-09-09T03:53:21;3.58;;;1.60;;
39918;SDS011;25589;51.552;13.424;2022-09-09T03:55:50;2.03;;;1.30;;
39918;SDS011;25589;51.552;13.424;2022-09-09T03:58:20;1.25;;;1.20;;
39918;SDS011;25589;51.552;13.424;2022-09-09T04:00:53;1.98;;;1.42;;
39918;SDS011;25589;51.552;13.424;2022-09-09T04:03:20;1.88;;;1.50;;
39918;SDS011;25589;51.552;13.424;2022-09-09T04:05:57;1.58;;;1.35;;
39918;SDS011;25589;51.552;13.424;2022-09-09T04:08:26;3.47;;;1.58;;
39918;SDS011;25589;51.552;13.424;2022-09-09T04:10:52;2.22;;;1.67;;
39918;SDS011;25589;51.552;13.424;2022-09-09T04:13:22;3.63;;;1.33;;
39918;SDS011;25589;51.552;13.424;2022-09-09T04:15:53;4.47;;;1.80;;
39918;SDS011;25589;51.552;13.424;2022-09-09T04:18:20;1.52;;;1.42;;
39918;SDS011;25589;51.552;13.424;2022-09-09T04:20:47;3.70;;;1.92;;
39918;SDS011;25589;51.552;13.424;2022-09-09T04:23:13;2.50;;;1.45;;
39918;SDS011;25589;51.552;13.424;2022-09-09T04:25:50;2.85;;;1.45;;
39918;SDS011;25589;51.552;13.424;2022-09-09T04:28:17;2.60;;;2.20;;
39918;SDS011;25589;51.552;13.424;2022-09-09T04:30:44;5.13;;;1.60;;
39918;SDS011;25589;51.552;13.424;2022-09-09T04:33:11;2.47;;;1.75;;
39918;SDS011;25589;51.552;13.424;2022-09-09T04:35:37;5.07;;;1.60;;
39918;SDS011;25589;51.552;13.424;2022-09-09T04:38:04;4.25;;;1.73;;
39918;SDS011;25589;51.552;13.424;2022-09-09T04:40:32;3.58;;;1.83;;
39918;SDS011;25589;51.552;13.424;2022-09-09T04:42:58;1.98;;;1.60;;
39918;SDS011;25589;51.552;13.424;2022-09-09T04:45:24;2.33;;;1.48;;
39918;SDS011;25589;51.552;13.424;2022-09-09T04:47:52;4.90;;;1.83;;
39918;SDS011;25589;51.552;13.424;2022-09-09T04:50:18;4.13;;;1.90;;
39918;SDS011;25589;51.552;13.424;2022-09-09T04:52:45;3.30;;;1.73;;
39918;SDS011;25589;51.552;13.424;2022-09-09T04:55:12;1.90;;;1.80;;
39918;SDS011;25589;51.552;13.424;2022-09-09T04:57:41;3.55;;;1.60;;
39918;SDS011;25589;51.552;13.424;2022-09-09T05:00:10;3.17;;;1.92;;
39918;SDS011;25589;51.552;13.424;2022-09-09T05:02:40;3.13;;;1.63;;
39918;SDS011;25589;51.552;13.424;2022-09-09T05:05:07;2.40;;;1.70;;
39918;SDS011;25589;51.552;13.424;2022-09-09T05:07:34;1.83;;;1.63;;
39918;SDS011;25589;51.552;13.424;2022-09-09T05:09:59;5.47;;;1.88;;
39918;SDS011;25589;51.552;13.424;2022-09-09T05:12:25;4.32;;;1.90;;
39918;SDS011;25589;51.552;13.424;2022-09-09T05:14:51;3.67;;;1.92;;
39918;SDS011;25589;51.552;13.424;2022-09-09T05:17:17;3.80;;;1.92;;
39918;SDS011;25589;51.552;13.424;2022-09-09T05:19:43;1.80;;;1.60;;
39918;SDS011;25589;51.552;13.424;2022-09-09T05:22:09;2.47;;;2.10;;
39918;SDS011;25589;51.552;13.424;2022-09-09T05:24:42;5.50;;;1.92;;
39918;SDS011;25589;51.552;13.424;2022-09-09T05:27:09;3.92;;;1.75;;
39918;SDS011;25589;51.552;13.424;2022-09-09T05:29:37;3.13;;;1.42;;
39918;SDS011;25589;51.552;13.424;2022-09-09T05:32:05;2.78;;;1.35;;
39918;SDS011;25589;51.552;13.424;2022-09-09T05:34:31;6.88;;;1.80;;
39918;SDS011;25589;51.552;13.424;2022-09-09T05:36:57;2.75;;;1.90;;
39918;SDS011;25589;51.552;13.424;2022-09-09T05:39:24;2.88;;;1.70;;
39918;SDS011;25589;51.552;13.424;2022-09-09T05:41:50;4.80;;;2.40;;
39918;SDS011;25589;51.552;13.424;2022-09-09T05:44:16;2.30;;;1.48;;
39918;SDS011;25589;51.552;13.424;2022-09-09T05:46:42;4.90;;;1.85;;
39918;SDS011;25589;51.552;13.424;2022-09-09T05:49:08;4.55;;;1.73;;
39918;SDS011;25589;51.552;13.424;2022-09-09T05:51:34;2.67;;;1.63;;
39918;SDS011;25589;51.552;13.424;2022-09-09T05:54:05;4.47;;;1.98;;
39918;SDS011;25589;51.552;13.424;2022-09-09T05:56:35;3.08;;;1.95;;
39918;SDS011;25589;51.552;13.424;2022-09-09T05:59:01;6.72;;;1.75;;
39918;SDS011;25589;51.552;13.424;2022-09-09T06:01:28;4.38;;;2.60;;
39918;SDS011;25589;51.552;13.424;2022-09-09T06:03:56;2.40;;;1.25;;
39918;SDS011;25589;51.552;13.424;2022-09-09T06:06:26;3.75;;;1.60;;
39918;SDS011;25589;51.552;13.424;2022-09-09T06:08:58;4.35;;;1.63;;
39918;SDS011;25589;51.552;13.424;2022-09-09T06:11:29;3.63;;;1.30;;
39918;SDS011;25589;51.552;13.424;2022-09-09T06:13:58;3.28;;;1.35;;
39918;SDS011;25589;51.552;13.424;2022-09-09T06:16:25;4.13;;;1.55;;
39918;SDS011;25589;51.552;13.424;2022-09-09T06:18:52;3.45;;;1.42;;
39918;SDS011;25589;51.552;13.424;2022-09-09T06:21:23;5.68;;;1.67;;
39918;SDS011;25589;51.552;13.424;2022-09-09T06:23:53;2.25;;;1.20;;
39918;SDS011;25589;51.552;13.424;2022-09-09T06:29:00;1.50;;;0.95;;
39918;SDS011;25589;51.552;13.424;2022-09-09T06:31:29;4.30;;;1.20;;
39918;SDS011;25589;51.552;13.424;2022-09-09T06:33:59;2.00;;;1.13;;
39918;SDS011;25589;51.552;13.424;2022-09-09T06:36:27;1.85;;;1.00;;
39918;SDS011;25589;51.552;13.424;2022-09-09T06:38:54;4.97;;;1.65;;
39918;SDS011;25589;51.552;13.424;2022-09-09T06:41:21;2.45;;;1.38;;
39918;SDS011;25589;51.552;13.424;2022-09-09T06:43:48;4.53;;;1.35;;
39918;SDS011;25589;51.552;13.424;2022-09-09T06:46:22;3.78;;;1.40;;
39918;SDS011;25589;51.552;13.424;2022-09-09T06:48:49;2.75;;;1.35;;
39918;SDS011;25589;51.552;13.424;2022-09-09T06:51:17;3.38;;;1.48;;
39918;SDS011;25589;51.552;13.424;2022-09-09T06:53:45;3.80;;;1.73;;
39918;SDS011;25589;51.552;13.424;2022-09-09T06:58:41;4.10;;;1.08;;
39918;SDS011;25589;51.552;13.424;2022-09-09T07:01:13;5.60;;;1.05;;
39918;SDS011;25589;51.552;13.424;2022-09-09T07:03:41;2.38;;;1.00;;
39918;SDS011;25589;51.552;13.424;2022-09-09T07:06:09;3.83;;;1.20;;
39918;SDS011;25589;51.552;13.424;2022-09-09T07:08:49;3.30;;;1.40;;
39918;SDS011;25589;51.552;13.424;2022-09-09T07:11:24;3.35;;;1.30;;
39918;SDS011;25589;51.552;13.424;2022-09-09T07:13:52;7.07;;;1.42;;
39918;SDS011;25589;51.552;13.424;2022-09-09T07:16:18;1.92;;;1.13;;
39918;SDS011;25589;51.552;13.424;2022-09-09T07:18:45;2.22;;;1.30;;
39918;SDS011;25589;51.552;13.424;2022-09-09T07:21:13;2.15;;;1.50;;
39918;SDS011;25589;51.552;13.424;2022-09-09T07:23:40;1.30;;;1.20;;
39918;SDS011;25589;51.552;13.424;2022-09-09T07:26:13;3.75;;;1.30;;
39918;SDS011;25589;51.552;13.424;2022-09-09T07:28:40;5.70;;;1.27;;
39918;SDS011;25589;51.552;13.424;2022-09-09T07:31:08;3.67;;;1.15;;
39918;SDS011;25589;51.552;13.424;2022-09-09T07:33:40;2.85;;;1.38;;
39918;SDS011;25589;51.552;13.424;2022-09-09T07:36:07;4.60;;;1.20;;
39918;SDS011;25589;51.552;13.424;2022-09-09T07:38:40;2.95;;;1.20;;
39918;SDS011;25589;51.552;13.424;2022-09-09T07:41:09;1.33;;;1.23;;
39918;SDS011;25589;51.552;13.424;2022-09-09T07:43:38;2.17;;;0.95;;
39918;SDS011;25589;51.552;13.424;2022-09-09T07:46:05;2.25;;;0.90;;
39918;SDS011;25589;51.552;13.424;2022-09-09T07:48:32;5.78;;;1.15;;
39918;SDS011;25589;51.552;13.424;2022-09-09T07:51:08;2.30;;;1.30;;
39918;SDS011;25589;51.552;13.424;2022-09-09T07:53:37;2.35;;;0.93;;
39918;SDS011;25589;51.552;13.424;2022-09-09T07:56:09;3.70;;;1.27;;
39918;SDS011;25589;51.552;13.424;2022-09-09T07:58:37;2.13;;;1.05;;
39918;SDS011;25589;51.552;13.424;2022-09-09T08:01:06;2.45;;;0.93;;
39918;SDS011;25589;51.552;13.424;2022-09-09T08:03:33;2.47;;;1.38;;
39918;SDS011;25589;51.552;13.424;2022-09-09T08:06:00;5.65;;;1.27;;
39918;SDS011;25589;51.552;13.424;2022-09-09T08:08:27;3.05;;;1.10;;
39918;SDS011;25589;51.552;13.424;2022-09-09T08:10:53;3.33;;;0.88;;
39918;SDS011;25589;51.552;13.424;2022-09-09T08:13:48;4.45;;;1.40;;
39918;SDS011;25589;51.552;13.424;2022-09-09T08:16:16;3.67;;;0.80;;
39918;SDS011;25589;51.552;13.424;2022-09-09T08:18:43;1.55;;;0.90;;
39918;SDS011;25589;51.552;13.424;2022-09-09T08:21:11;1.67;;;0.90;;
39918;SDS011;25589;51.552;13.424;2022-09-09T08:23:42;4.50;;;1.10;;
39918;SDS011;25589;51.552;13.424;2022-09-09T08:26:10;1.65;;;1.00;;
39918;SDS011;25589;51.552;13.424;2022-09-09T08:28:39;3.75;;;0.98;;
39918;SDS011;25589;51.552;13.424;2022-09-09T08:31:06;2.85;;;1.00;;
39918;SDS011;25589;51.552;13.424;2022-09-09T08:33:33;5.25;;;1.02;;
39918;SDS011;25589;51.552;13.424;2022-09-09T08:35:59;1.23;;;0.80;;
39918;SDS011;25589;51.552;13.424;2022-09-09T08:38:24;2.00;;;1.38;;
39918;SDS011;25589;51.552;13.424;2022-09-09T08:40:50;2.10;;;1.05;;
39918;SDS011;25589;51.552;13.424;2022-09-09T08:43:26;3.08;;;1.10;;
39918;SDS011;25589;51.552;13.424;2022-09-09T08:46:37;2.88;;;0.80;;
39918;SDS011;25589;51.552;13.424;2022-09-09T08:51:38;2.92;;;1.23;;
39918;SDS011;25589;51.552;13.424;2022-09-09T08:54:04;1.23;;;0.80;;
39918;SDS011;25589;51.552;13.424;2022-09-09T08:56:31;4.65;;;1.20;;
39918;SDS011;25589;51.552;13.424;2022-09-09T08:58:59;2.88;;;0.90;;
39918;SDS011;25589;51.552;13.424;2022-09-09T09:01:45;5.18;;;1.00;;
39918;SDS011;25589;51.552;13.424;2022-09-09T09:04:33;3.63;;;1.08;;
39918;SDS011;25589;51.552;13.424;2022-09-09T09:10:38;3.00;;;0.82;;
39918;SDS011;25589;51.552;13.424;2022-09-09T09:16:14;4.20;;;1.17;;
39918;SDS011;25589;51.552;13.424;2022-09-09T09:18:47;5.15;;;1.40;;
39918;SDS011;25589;51.552;13.424;2022-09-09T09:21:58;2.75;;;0.90;;
39918;SDS011;25589;51.552;13.424;2022-09-09T09:24:17;2.47;;;1.08;;
39918;SDS011;25589;51.552;13.424;2022-09-09T09:27:14;3.53;;;0.98;;
39918;SDS011;25589;51.552;13.424;2022-09-09T09:29:48;4.30;;;1.02;;
39918;SDS011;25589;51.552;13.424;2022-09-09T09:32:16;3.67;;;0.88;;
39918;SDS011;25589;51.552;13.424;2022-09-09T09:34:49;2.70;;;1.10;;
39918;SDS011;25589;51.552;13.424;2022-09-09T09:37:31;2.58;;;0.82;;
39918;SDS011;25589;51.552;13.424;2022-09-09T09:40:10;2.67;;;1.00;;
39918;SDS011;25589;51.552;13.424;2022-09-09T09:42:38;1.42;;;0.70;;
39918;SDS011;25589;51.552;13.424;2022-09-09T09:45:31;4.95;;;0.90;;
39918;SDS011;25589;51.552;13.424;2022-09-09T09:50:29;1.33;;;0.80;;
39918;SDS011;25589;51.552;13.424;2022-09-09T09:52:57;4.60;;;1.10;;
39918;SDS011;25589;51.552;13.424;2022-09-09T09:55:28;2.88;;;0.90;;
39918;SDS011;25589;51.552;13.424;2022-09-09T09:58:06;2.63;;;0.80;;
39918;SDS011;25589;51.552;13.424;2022-09-09T10:00:47;3.13;;;1.25;;
39918;SDS011;25589;51.552;13.424;2022-09-09T10:03:26;4.70;;;0.98;;
39918;SDS011;25589;51.552;13.424;2022-09-09T10:05:59;4.63;;;0.82;;
39918;SDS011;25589;51.552;13.424;2022-09-09T10:08:26;3.88;;;1.00;;
39918;SDS011;25589;51.552;13.424;2022-09-09T10:18:55;2.70;;;0.70;;
39918;SDS011;25589;51.552;13.424;2022-09-09T10:21:43;1.25;;;0.90;;
39918;SDS011;25589;51.552;13.424;2022-09-09T10:24:54;0.77;;;0.60;;
39918;SDS011;25589;51.552;13.424;2022-09-09T10:36:16;1.88;;;0.88;;
39918;SDS011;25589;51.552;13.424;2022-09-09T10:38:48;1.13;;;0.65;;
39918;SDS011;25589;51.552;13.424;2022-09-09T10:41:45;3.28;;;0.90;;
39918;SDS011;25589;51.552;13.424;2022-09-09T10:44:28;2.60;;;0.77;;
39918;SDS011;25589;51.552;13.424;2022-09-09T10:53:02;4.45;;;0.52;;
39918;SDS011;25589;51.552;13.424;2022-09-09T10:55:43;1.25;;;0.65;;
39918;SDS011;25589;51.552;13.424;2022-09-09T10:58:20;3.22;;;0.95;;
39918;SDS011;25589;51.552;13.424;2022-09-09T11:00:56;2.10;;;0.80;;
39918;SDS011;25589;51.552;13.424;2022-09-09T11:03:28;3.20;;;0.73;;
39918;SDS011;25589;51.552;13.424;2022-09-09T11:05:59;2.90;;;0.77;;
39918;SDS011;25589;51.552;13.424;2022-09-09T11:08:38;2.50;;;0.85;;
39918;SDS011;25589;51.552;13.424;2022-09-09T11:11:13;3.20;;;0.90;;
39918;SDS011;25589;51.552;13.424;2022-09-09T11:16:29;3.80;;;0.85;;
39918;SDS011;25589;51.552;13.424;2022-09-09T11:19:03;2.95;;;0.85;;
39918;SDS011;25589;51.552;13.424;2022-09-09T11:21:40;2.22;;;0.88;;
39918;SDS011;25589;51.552;13.424;2022-09-09T11:24:12;3.90;;;1.00;;
39918;SDS011;25589;51.552;13.424;2022-09-09T11:38:26;3.63;;;0.80;;
39918;SDS011;25589;51.552;13.424;2022-09-09T11:43:28;1.60;;;0.75;;
39918;SDS011;25589;51.552;13.424;2022-09-09T11:45:58;4.05;;;1.38;;
39918;SDS011;25589;51.552;13.424;2022-09-09T11:51:08;2.80;;;1.35;;
39918;SDS011;25589;51.552;13.424;2022-09-09T11:53:48;4.93;;;1.25;;
39918;SDS011;25589;51.552;13.424;2022-09-09T11:56:23;1.75;;;1.00;;
39918;SDS011;25589;51.552;13.424;2022-09-09T11:58:55;1.65;;;0.85;;
39918;SDS011;25589;51.552;13.424;2022-09-09T12:01:44;3.88;;;0.95;;
39918;SDS011;25589;51.552;13.424;2022-09-09T12:04:16;3.97;;;1.17;;
39918;SDS011;25589;51.552;13.424;2022-09-09T12:07:04;3.00;;;1.15;;
39918;SDS011;25589;51.552;13.424;2022-09-09T12:09:47;1.77;;;0.85;;
39918;SDS011;25589;51.552;13.424;2022-09-09T12:17:22;4.43;;;1.52;;
39918;SDS011;25589;51.552;13.424;2022-09-09T12:19:59;1.98;;;1.10;;
39918;SDS011;25589;51.552;13.424;2022-09-09T12:28:16;2.28;;;1.00;;
39918;SDS011;25589;51.552;13.424;2022-09-09T12:33:32;2.20;;;1.10;;
39918;SDS011;25589;51.552;13.424;2022-09-09T12:36:02;2.70;;;0.80;;
39918;SDS011;25589;51.552;13.424;2022-09-09T12:38:34;3.72;;;1.00;;
39918;SDS011;25589;51.552;13.424;2022-09-09T12:41:03;6.78;;;2.03;;
39918;SDS011;25589;51.552;13.424;2022-09-09T12:43:29;2.58;;;0.88;;
39918;SDS011;25589;51.552;13.424;2022-09-09T12:46:07;2.30;;;0.80;;
39918;SDS011;25589;51.552;13.424;2022-09-09T12:48:42;1.75;;;0.80;;
39918;SDS011;25589;51.552;13.424;2022-09-09T12:51:24;2.08;;;1.10;;
39918;SDS011;25589;51.552;13.424;2022-09-09T12:53:54;1.48;;;0.98;;
39918;SDS011;25589;51.552;13.424;2022-09-09T12:56:21;2.88;;;0.70;;
39918;SDS011;25589;51.552;13.424;2022-09-09T12:58:51;3.60;;;0.93;;
39918;SDS011;25589;51.552;13.424;2022-09-09T13:01:23;2.10;;;0.82;;
39918;SDS011;25589;51.552;13.424;2022-09-09T13:03:50;2.40;;;0.90;;
39918;SDS011;25589;51.552;13.424;2022-09-09T13:06:22;2.75;;;1.10;;
39918;SDS011;25589;51.552;13.424;2022-09-09T13:08:49;2.25;;;1.10;;
39918;SDS011;25589;51.552;13.424;2022-09-09T13:11:17;1.70;;;0.82;;
39918;SDS011;25589;51.552;13.424;2022-09-09T13:13:54;5.15;;;1.00;;
39918;SDS011;25589;51.552;13.424;2022-09-09T13:18:50;2.65;;;0.80;;
39918;SDS011;25589;51.552;13.424;2022-09-09T13:21:16;4.40;;;1.30;;
39918;SDS011;25589;51.552;13.424;2022-09-09T13:23:47;1.88;;;0.82;;
39918;SDS011;25589;51.552;13.424;2022-09-09T13:26:22;1.77;;;0.70;;
39918;SDS011;25589;51.552;13.424;2022-09-09T13:28:49;2.22;;;0.90;;
39918;SDS011;25589;51.552;13.424;2022-09-09T13:31:20;2.80;;;0.75;;
39918;SDS011;25589;51.552;13.424;2022-09-09T13:33:56;3.85;;;0.95;;
39918;SDS011;25589;51.552;13.424;2022-09-09T13:36:32;2.88;;;0.75;;
39918;SDS011;25589;51.552;13.424;2022-09-09T13:39:00;1.98;;;0.90;;
39918;SDS011;25589;51.552;13.424;2022-09-09T13:41:32;4.57;;;0.65;;
39918;SDS011;25589;51.552;13.424;2022-09-09T13:44:00;4.25;;;1.02;;
39918;SDS011;25589;51.552;13.424;2022-09-09T13:46:37;3.53;;;0.82;;
39918;SDS011;25589;51.552;13.424;2022-09-09T13:51:43;4.65;;;1.10;;
39918;SDS011;25589;51.552;13.424;2022-09-09T13:54:16;1.85;;;0.65;;
39918;SDS011;25589;51.552;13.424;2022-09-09T13:56:43;3.25;;;0.82;;
39918;SDS011;25589;51.552;13.424;2022-09-09T13:59:10;2.88;;;1.00;;
39918;SDS011;25589;51.552;13.424;2022-09-09T14:01:40;1.15;;;0.77;;
39918;SDS011;25589;51.552;13.424;2022-09-09T14:04:06;2.78;;;0.80;;
39918;SDS011;25589;51.552;13.424;2022-09-09T14:06:33;2.65;;;1.00;;
39918;SDS011;25589;51.552;13.424;2022-09-09T14:09:02;1.63;;;0.68;;
39918;SDS011;25589;51.552;13.424;2022-09-09T14:11:28;1.27;;;0.90;;
39918;SDS011;25589;51.552;13.424;2022-09-09T14:13:53;2.45;;;0.88;;
39918;SDS011;25589;51.552;13.424;2022-09-09T14:16:19;2.50;;;1.00;;
39918;SDS011;25589;51.552;13.424;2022-09-09T14:18:46;1.70;;;0.60;;
39918;SDS011;25589;51.552;13.424;2022-09-09T14:21:12;1.92;;;0.60;;
39918;SDS011;25589;51.552;13.424;2022-09-09T14:23:38;3.97;;;0.75;;
39918;SDS011;25589;51.552;13.424;2022-09-09T14:26:04;2.92;;;0.80;;
39918;SDS011;25589;51.552;13.424;2022-09-09T14:28:31;2.63;;;0.90;;
39918;SDS011;25589;51.552;13.424;2022-09-09T14:30:59;3.30;;;0.77;;
39918;SDS011;25589;51.552;13.424;2022-09-09T14:33:26;1.65;;;0.63;;
39918;SDS011;25589;51.552;13.424;2022-09-09T14:35:57;1.38;;;0.50;;
39918;SDS011;25589;51.552;13.424;2022-09-09T14:38:24;2.10;;;0.63;;
39918;SDS011;25589;51.552;13.424;2022-09-09T14:40:50;1.45;;;0.77;;
39918;SDS011;25589;51.552;13.424;2022-09-09T14:43:15;3.50;;;0.80;;
39918;SDS011;25589;51.552;13.424;2022-09-09T14:45:41;1.42;;;0.60;;
39918;SDS011;25589;51.552;13.424;2022-09-09T14:48:08;4.95;;;1.30;;
39918;SDS011;25589;51.552;13.424;2022-09-09T14:50:34;3.55;;;0.85;;
39918;SDS011;25589;51.552;13.424;2022-09-09T14:53:01;2.28;;;0.82;;
39918;SDS011;25589;51.552;13.424;2022-09-09T14:55:27;1.30;;;0.75;;
39918;SDS011;25589;51.552;13.424;2022-09-09T14:57:54;1.38;;;0.70;;
39918;SDS011;25589;51.552;13.424;2022-09-09T15:00:19;3.17;;;1.00;;
39918;SDS011;25589;51.552;13.424;2022-09-09T15:02:45;3.47;;;0.90;;
39918;SDS011;25589;51.552;13.424;2022-09-09T15:05:10;2.22;;;0.90;;
39918;SDS011;25589;51.552;13.424;2022-09-09T15:07:36;3.50;;;0.98;;
39918;SDS011;25589;51.552;13.424;2022-09-09T15:10:03;2.17;;;0.75;;
39918;SDS011;25589;51.552;13.424;2022-09-09T15:12:29;2.33;;;0.75;;
39918;SDS011;25589;51.552;13.424;2022-09-09T15:14:55;1.83;;;1.00;;
39918;SDS011;25589;51.552;13.424;2022-09-09T15:17:20;2.42;;;0.47;;
39918;SDS011;25589;51.552;13.424;2022-09-09T15:19:46;1.63;;;0.60;;
39918;SDS011;25589;51.552;13.424;2022-09-09T15:22:12;2.67;;;0.65;;
39918;SDS011;25589;51.552;13.424;2022-09-09T15:24:38;1.92;;;0.60;;
39918;SDS011;25589;51.552;13.424;2022-09-09T15:27:04;0.90;;;0.47;;
39918;SDS011;25589;51.552;13.424;2022-09-09T15:29:29;2.22;;;0.95;;
39918;SDS011;25589;51.552;13.424;2022-09-09T15:31:55;2.95;;;0.75;;
39918;SDS011;25589;51.552;13.424;2022-09-09T15:34:21;6.25;;;1.25;;
39918;SDS011;25589;51.552;13.424;2022-09-09T15:36:46;0.95;;;0.30;;
39918;SDS011;25589;51.552;13.424;2022-09-09T15:39:13;1.42;;;0.52;;
39918;SDS011;25589;51.552;13.424;2022-09-09T15:41:44;5.28;;;0.75;;
39918;SDS011;25589;51.552;13.424;2022-09-09T15:44:12;2.28;;;0.73;;
39918;SDS011;25589;51.552;13.424;2022-09-09T15:51:40;1.35;;;0.70;;
39918;SDS011;25589;51.552;13.424;2022-09-09T15:54:09;1.15;;;0.57;;
39918;SDS011;25589;51.552;13.424;2022-09-09T15:56:43;2.22;;;0.90;;
39918;SDS011;25589;51.552;13.424;2022-09-09T15:59:10;2.20;;;0.52;;
39918;SDS011;25589;51.552;13.424;2022-09-09T16:01:36;3.55;;;0.93;;
39918;SDS011;25589;51.552;13.424;2022-09-09T16:04:07;2.35;;;0.57;;
39918;SDS011;25589;51.552;13.424;2022-09-09T16:06:33;1.92;;;0.80;;
39918;SDS011;25589;51.552;13.424;2022-09-09T16:08:58;5.57;;;0.90;;
39918;SDS011;25589;51.552;13.424;2022-09-09T16:11:36;1.95;;;0.68;;
39918;SDS011;25589;51.552;13.424;2022-09-09T16:14:02;2.65;;;0.80;;
39918;SDS011;25589;51.552;13.424;2022-09-09T16:16:29;2.85;;;0.70;;
39918;SDS011;25589;51.552;13.424;2022-09-09T16:18:56;1.50;;;0.60;;
39918;SDS011;25589;51.552;13.424;2022-09-09T16:21:24;1.83;;;0.80;;
39918;SDS011;25589;51.552;13.424;2022-09-09T16:23:54;2.72;;;0.88;;
39918;SDS011;25589;51.552;13.424;2022-09-09T16:26:21;4.30;;;1.33;;
39918;SDS011;25589;51.552;13.424;2022-09-09T16:28:47;1.63;;;0.90;;
39918;SDS011;25589;51.552;13.424;2022-09-09T16:31:13;2.35;;;0.77;;
39918;SDS011;25589;51.552;13.424;2022-09-09T16:33:45;2.47;;;0.95;;
39918;SDS011;25589;51.552;13.424;2022-09-09T16:36:12;5.38;;;0.90;;
39918;SDS011;25589;51.552;13.424;2022-09-09T16:38:42;2.58;;;0.82;;
39918;SDS011;25589;51.552;13.424;2022-09-09T16:41:08;2.47;;;0.95;;
39918;SDS011;25589;51.552;13.424;2022-09-09T16:43:35;2.15;;;1.15;;
39918;SDS011;25589;51.552;13.424;2022-09-09T16:46:02;3.83;;;1.13;;
39918;SDS011;25589;51.552;13.424;2022-09-09T16:48:32;3.10;;;1.50;;
39918;SDS011;25589;51.552;13.424;2022-09-09T16:51:02;2.10;;;0.82;;
39918;SDS011;25589;51.552;13.424;2022-09-09T16:53:35;4.28;;;1.02;;
39918;SDS011;25589;51.552;13.424;2022-09-09T16:56:07;1.85;;;0.85;;